createdAt,value
2018-12-11T00:00:02.665Z,3
2018-12-11T00:05:03.507Z,4
2018-12-11T00:10:03.120Z,4
2018-12-11T00:15:02.886Z,5
2018-12-11T00:20:03.456Z,6
2018-12-11T00:25:02.855Z,4
2018-12-11T00:30:03.288Z,6
2018-12-11T00:35:02.939Z,3
2018-12-11T00:40:03.528Z,3
2018-12-11T00:45:02.980Z,6
2018-12-11T00:50:03.409Z,6
2018-12-11T00:55:02.867Z,2
2018-12-11T01:00:03.238Z,3
2018-12-11T01:05:02.601Z,3
2018-12-11T01:10:03.103Z,5
2018-12-11T01:15:03.540Z,0
2018-12-11T01:20:03.046Z,2
2018-12-11T01:25:02.549Z,2
2018-12-11T01:30:03.034Z,2
2018-12-11T01:35:03.512Z,2
2018-12-11T01:40:02.949Z,0
2018-12-11T01:45:03.482Z,2
2018-12-11T01:50:02.916Z,0
2018-12-11T01:55:03.388Z,2
2018-12-11T02:00:02.802Z,2
2018-12-11T02:05:03.387Z,3
2018-12-11T02:10:02.954Z,2
2018-12-11T02:15:03.368Z,1
2018-12-11T02:20:02.838Z,2
2018-12-11T02:25:03.224Z,2
2018-12-11T02:30:02.641Z,5
2018-12-11T02:35:03.227Z,3
2018-12-11T02:40:02.735Z,1
2018-12-11T02:45:03.223Z,3
2018-12-11T02:50:02.660Z,2
2018-12-11T02:55:03.104Z,2
2018-12-11T03:00:03.543Z,2
2018-12-11T03:05:02.948Z,2
2018-12-11T03:10:02.550Z,2
2018-12-11T03:15:03.079Z,0
2018-12-11T03:20:02.693Z,2
2018-12-11T03:25:03.143Z,1
2018-12-11T03:30:02.591Z,0
2018-12-11T03:35:03.071Z,0
2018-12-11T03:40:02.619Z,0
2018-12-11T03:45:03.065Z,0
2018-12-11T03:50:02.564Z,2
2018-12-11T03:55:03.090Z,2
2018-12-11T04:00:02.633Z,1
2018-12-11T04:05:03.092Z,4
2018-12-11T04:10:02.592Z,1
2018-12-11T04:15:03.052Z,2
2018-12-11T04:20:03.548Z,4
2018-12-11T04:25:02.993Z,3
2018-12-11T04:30:03.450Z,2
2018-12-11T04:35:02.883Z,3
2018-12-11T04:40:03.353Z,4
2018-12-11T04:45:02.874Z,3
2018-12-11T04:50:03.298Z,2
2018-12-11T04:55:02.757Z,5
2018-12-11T05:00:03.467Z,3
2018-12-11T05:05:02.968Z,5
2018-12-11T05:10:03.500Z,3
2018-12-11T05:15:02.937Z,3
2018-12-11T05:20:03.509Z,4
2018-12-11T05:25:02.894Z,3
2018-12-11T05:30:02.833Z,4
2018-12-11T05:35:03.347Z,2
2018-12-11T05:40:02.770Z,2
2018-12-11T05:45:03.202Z,1
2018-12-11T05:50:02.609Z,4
2018-12-11T05:55:03.052Z,1
2018-12-11T06:00:03.445Z,3
2018-12-11T06:05:02.898Z,3
2018-12-11T06:10:03.237Z,2
2018-12-11T06:15:02.751Z,2
2018-12-11T06:20:03.226Z,5
2018-12-11T06:25:03.526Z,3
2018-12-11T06:30:02.582Z,3
2018-12-11T06:35:03.093Z,2
2018-12-11T06:40:02.647Z,2
2018-12-11T06:45:03.129Z,4
2018-12-11T06:50:02.632Z,1
2018-12-11T06:55:03.149Z,2
2018-12-11T07:00:02.749Z,3
2018-12-11T07:05:03.276Z,2
2018-12-11T07:10:02.776Z,3
2018-12-11T07:15:03.230Z,2
2018-12-11T07:20:02.706Z,2
2018-12-11T07:25:03.135Z,2
2018-12-11T07:30:03.494Z,0
2018-12-11T07:35:02.903Z,1
2018-12-11T07:40:03.364Z,4
2018-12-11T07:45:02.839Z,3
2018-12-11T07:50:03.247Z,3
2018-12-11T07:55:02.617Z,3
2018-12-11T08:00:03.056Z,0
2018-12-11T08:05:03.457Z,0
2018-12-11T08:10:03.366Z,1
2018-12-11T08:15:02.896Z,2
2018-12-11T08:20:03.334Z,2
2018-12-11T08:25:02.812Z,3
2018-12-11T08:30:03.406Z,3
2018-12-11T08:35:02.913Z,1
2018-12-11T08:40:03.528Z,3
2018-12-11T08:45:02.942Z,2
2018-12-11T08:50:03.299Z,2
2018-12-11T08:55:02.746Z,4
2018-12-11T09:00:03.235Z,3
2018-12-11T09:05:02.698Z,7
2018-12-11T09:10:03.218Z,3
2018-12-11T09:15:02.711Z,2
2018-12-11T09:20:03.180Z,2
2018-12-11T09:25:02.594Z,3
2018-12-11T09:30:03.165Z,2
2018-12-11T09:35:02.672Z,4
2018-12-11T09:40:03.211Z,4
2018-12-11T09:45:02.723Z,4
2018-12-11T09:50:03.090Z,3
2018-12-11T09:55:03.584Z,1
2018-12-11T10:00:03.101Z,2
2018-12-11T10:05:03.442Z,4
2018-12-11T10:10:02.944Z,2
2018-12-11T10:15:03.415Z,3
2018-12-11T10:20:02.772Z,6
2018-12-11T10:25:03.147Z,4
2018-12-11T10:30:02.531Z,5
2018-12-11T10:35:02.988Z,3
2018-12-11T10:40:03.477Z,2
2018-12-11T10:45:03.202Z,3
2018-12-11T10:50:02.675Z,3
2018-12-11T10:55:03.202Z,4
2018-12-11T11:00:02.697Z,3
2018-12-11T11:05:03.126Z,3
2018-12-11T11:10:02.676Z,3
2018-12-11T11:15:03.246Z,2
2018-12-11T11:20:02.652Z,0
2018-12-11T11:25:03.425Z,0
2018-12-11T11:30:03.146Z,0
2018-12-11T11:35:02.613Z,1
2018-12-11T11:40:03.177Z,0
2018-12-11T11:45:03.562Z,0
2018-12-11T11:50:02.928Z,4
2018-12-11T11:55:03.307Z,5
2018-12-11T12:00:02.700Z,7
2018-12-11T12:05:03.357Z,3
2018-12-11T12:10:02.804Z,2
2018-12-11T12:15:03.375Z,2
2018-12-11T12:20:02.873Z,7
2018-12-11T12:25:03.300Z,4
2018-12-11T12:30:02.836Z,5
2018-12-11T12:35:03.397Z,3
2018-12-11T12:40:03.000Z,4
2018-12-11T12:45:03.540Z,6
2018-12-11T12:50:03.059Z,4
2018-12-11T12:55:03.751Z,6
2018-12-11T13:00:03.223Z,2
2018-12-11T13:05:02.822Z,6
2018-12-11T13:10:03.101Z,5
2018-12-11T13:15:07.733Z,3
2018-12-11T13:20:03.103Z,1
2018-12-11T13:25:03.600Z,6
2018-12-11T13:30:03.026Z,4
2018-12-11T13:35:03.662Z,3
2018-12-11T13:40:03.471Z,2
2018-12-11T13:45:02.832Z,1
2018-12-11T13:50:03.550Z,1
2018-12-11T13:55:02.948Z,3
2018-12-11T14:00:03.365Z,2
2018-12-11T14:05:03.205Z,2
2018-12-11T14:10:03.032Z,1
2018-12-11T14:15:02.548Z,3
2018-12-11T15:01:05.969Z,0
2018-12-11T15:05:03.571Z,0
2018-12-11T15:10:02.986Z,0
2018-12-11T15:15:03.687Z,0
2018-12-11T15:20:03.210Z,0
2018-12-11T15:25:02.643Z,0
2018-12-11T15:30:03.041Z,0
2018-12-11T15:35:02.584Z,0
2018-12-11T15:40:03.131Z,0
2018-12-11T15:45:02.588Z,0
2018-12-11T15:50:03.137Z,0
2018-12-11T15:55:02.629Z,0
2018-12-11T16:00:03.188Z,0
2018-12-11T16:05:02.637Z,0
2018-12-11T16:10:03.146Z,0
2018-12-11T16:15:03.585Z,0
2018-12-11T16:20:03.046Z,0
2018-12-11T16:25:02.558Z,0
2018-12-11T16:30:03.042Z,0
2018-12-11T16:35:03.585Z,0
2018-12-11T16:40:05.231Z,0
2018-12-11T16:45:02.674Z,0
2018-12-11T16:50:03.157Z,0
2018-12-11T16:55:02.640Z,0
2018-12-11T17:00:03.129Z,0
2018-12-11T17:05:02.610Z,0
2018-12-11T17:10:03.066Z,0
2018-12-11T17:15:03.432Z,0
2018-12-11T17:20:02.896Z,0
2018-12-11T17:25:03.314Z,0
2018-12-11T17:30:02.729Z,0
2018-12-11T17:35:03.128Z,0
2018-12-11T17:40:02.904Z,0
2018-12-11T17:45:03.519Z,0
2018-12-11T17:50:03.001Z,0
2018-12-11T17:55:03.475Z,0
2018-12-11T18:00:02.893Z,0
2018-12-11T18:05:03.325Z,0
2018-12-11T18:10:02.861Z,0
2018-12-11T18:15:03.344Z,0
2018-12-11T18:20:02.995Z,0
2018-12-11T18:25:03.491Z,0
2018-12-11T18:30:02.926Z,0
2018-12-11T18:35:03.558Z,0
2018-12-11T18:40:03.018Z,0
2018-12-11T18:45:03.778Z,0
2018-12-11T18:50:03.370Z,0
2018-12-11T18:55:02.986Z,0
2018-12-11T19:00:02.568Z,0
2018-12-11T19:05:02.970Z,0
2018-12-11T19:10:03.592Z,0
2018-12-11T19:15:05.317Z,0
2018-12-11T19:20:02.944Z,0
2018-12-11T19:25:03.531Z,0
2018-12-11T19:30:03.024Z,0
2018-12-11T19:35:02.584Z,0
2018-12-11T19:40:02.797Z,0
2018-12-11T19:45:03.541Z,0
2018-12-11T19:50:03.144Z,0
2018-12-11T19:55:03.053Z,0
2018-12-11T20:00:02.505Z,0
2018-12-11T20:05:03.611Z,0
2018-12-11T20:10:02.705Z,0
2018-12-11T20:15:05.392Z,0
2018-12-11T20:20:03.396Z,0
2018-12-11T20:25:03.467Z,0
2018-12-11T20:30:03.523Z,0
2018-12-11T20:35:03.325Z,0
2018-12-11T20:40:03.559Z,0
2018-12-11T20:45:03.021Z,0
2018-12-11T20:50:03.075Z,0
2018-12-11T20:55:02.869Z,0
2018-12-11T21:00:03.615Z,0
2018-12-11T21:05:03.200Z,0
2018-12-11T21:10:02.720Z,0
2018-12-11T21:15:03.275Z,0
2018-12-11T21:20:02.712Z,0
2018-12-11T21:25:03.127Z,0
2018-12-11T21:30:02.592Z,0
2018-12-11T21:35:03.183Z,0
2018-12-11T21:40:02.738Z,0
2018-12-11T21:45:03.277Z,0
2018-12-11T21:50:02.825Z,0
2018-12-11T21:55:03.297Z,0
2018-12-11T22:00:02.693Z,0
2018-12-11T22:05:03.216Z,0
2018-12-11T22:10:02.693Z,0
2018-12-11T22:15:03.215Z,0
2018-12-11T22:20:02.661Z,0
2018-12-11T22:25:03.164Z,0
2018-12-11T22:30:02.720Z,0
2018-12-11T22:35:03.221Z,0
2018-12-11T22:40:02.740Z,0
2018-12-11T22:45:03.132Z,0
2018-12-11T22:50:02.578Z,0
2018-12-11T22:55:02.941Z,0
2018-12-11T23:00:03.421Z,0
2018-12-11T23:05:02.924Z,0
2018-12-11T23:10:03.458Z,0
2018-12-11T23:15:02.992Z,0
2018-12-11T23:20:03.529Z,0
2018-12-11T23:25:03.063Z,0
2018-12-11T23:30:03.595Z,0
2018-12-11T23:35:03.020Z,0
2018-12-11T23:40:02.662Z,0
2018-12-11T23:45:03.031Z,0
2018-12-11T23:50:03.514Z,0
2018-12-11T23:55:02.905Z,0
